createdAt,value
2023-01-17T00:02:08.820Z,0.88
2023-01-17T00:04:53.893Z,0.60
2023-01-17T00:07:41.362Z,1.13
2023-01-17T00:10:21.154Z,0.60
2023-01-17T00:12:57.369Z,0.50
2023-01-17T00:15:25.567Z,1.05
2023-01-17T00:17:53.553Z,1.40
2023-01-17T00:20:43.518Z,1.00
2023-01-17T00:23:42.712Z,0.50
2023-01-17T00:26:16.991Z,1.05
2023-01-17T00:28:44.492Z,0.43
2023-01-17T00:31:15.264Z,0.90
2023-01-17T00:33:42.279Z,0.40
2023-01-17T00:36:10.180Z,0.52
2023-01-17T00:38:39.033Z,0.30
2023-01-17T00:41:12.407Z,0.70
2023-01-17T00:43:57.958Z,0.43
2023-01-17T00:46:43.512Z,0.50
2023-01-17T00:49:28.907Z,0.50
2023-01-17T00:52:14.465Z,1.00
2023-01-17T00:54:59.563Z,0.55
2023-01-17T00:57:44.932Z,0.38
2023-01-17T01:00:31.520Z,0.68
2023-01-17T01:03:17.350Z,1.02
2023-01-17T01:06:02.722Z,0.60
2023-01-17T01:08:48.744Z,0.70
2023-01-17T01:11:39.203Z,0.70
2023-01-17T01:14:28.080Z,0.65
2023-01-17T01:17:13.854Z,0.50
2023-01-17T01:19:59.156Z,0.85
2023-01-17T01:22:44.593Z,0.70
2023-01-17T01:25:30.237Z,1.00
2023-01-17T01:28:29.436Z,1.02
2023-01-17T01:31:15.141Z,0.75
2023-01-17T01:33:41.992Z,0.45
2023-01-17T01:36:09.477Z,0.70
2023-01-17T01:38:36.482Z,0.50
2023-01-17T01:41:03.377Z,0.65
2023-01-17T01:43:53.699Z,0.50
2023-01-17T01:46:39.768Z,0.20
2023-01-17T01:49:20.609Z,0.28
2023-01-17T01:52:01.129Z,0.85
2023-01-17T01:54:55.809Z,1.05
2023-01-17T01:57:28.496Z,0.77
2023-01-17T02:00:01.026Z,0.75
2023-01-17T02:02:30.175Z,1.05
2023-01-17T02:04:59.114Z,1.00
2023-01-17T02:07:39.712Z,0.80
2023-01-17T02:10:06.826Z,0.93
2023-01-17T02:12:34.812Z,0.30
2023-01-17T02:15:02.482Z,0.75
2023-01-17T02:18:07.862Z,0.38
2023-01-17T02:21:23.077Z,0.40
2023-01-17T02:24:29.998Z,0.80
2023-01-17T02:27:24.758Z,0.45
2023-01-17T02:30:13.941Z,1.10
2023-01-17T02:33:06.497Z,0.30
2023-01-17T02:35:48.134Z,0.82
2023-01-17T02:38:33.733Z,0.95
2023-01-17T02:41:07.836Z,0.60
2023-01-17T02:43:37.235Z,0.65
2023-01-17T02:46:04.249Z,0.45
2023-01-17T02:48:33.713Z,1.00
2023-01-17T02:51:21.868Z,0.40
2023-01-17T02:54:48.373Z,0.45
2023-01-17T02:57:36.557Z,0.60
2023-01-17T03:00:31.972Z,0.70
2023-01-17T03:03:46.015Z,1.00
2023-01-17T03:06:20.048Z,0.70
2023-01-17T03:08:49.762Z,0.40
2023-01-17T03:11:16.618Z,0.47
2023-01-17T03:13:43.651Z,1.00
2023-01-17T03:16:21.098Z,0.70
2023-01-17T03:18:49.175Z,0.55
2023-01-17T03:21:16.043Z,0.45
2023-01-17T03:23:43.085Z,0.55
2023-01-17T03:26:09.983Z,1.02
2023-01-17T03:28:36.923Z,0.70
2023-01-17T03:31:03.889Z,0.70
2023-01-17T03:33:30.707Z,0.70
2023-01-17T03:36:00.381Z,0.82
2023-01-17T03:38:28.996Z,0.50
2023-01-17T03:40:56.404Z,1.05
2023-01-17T03:43:23.329Z,0.20
2023-01-17T03:45:54.043Z,0.45
2023-01-17T03:48:21.662Z,0.98
2023-01-17T03:50:51.988Z,0.50
2023-01-17T03:53:19.049Z,0.73
2023-01-17T03:55:47.106Z,0.60
2023-01-17T03:58:14.388Z,0.70
2023-01-17T04:00:41.185Z,0.80
2023-01-17T04:03:08.127Z,0.55
2023-01-17T04:05:35.042Z,0.57
2023-01-17T04:08:02.020Z,1.00
2023-01-17T04:10:28.859Z,0.65
2023-01-17T04:12:55.717Z,1.52
2023-01-17T04:15:22.562Z,1.00
2023-01-17T04:17:49.447Z,0.80
2023-01-17T04:20:34.829Z,0.65
2023-01-17T04:23:01.684Z,0.60
2023-01-17T04:25:30.665Z,1.50
2023-01-17T04:28:02.017Z,1.30
2023-01-17T04:30:29.609Z,0.55
2023-01-17T04:32:57.268Z,0.85
2023-01-17T04:35:24.935Z,1.45
2023-01-17T04:37:52.356Z,1.60
2023-01-17T04:40:19.192Z,1.80
2023-01-17T04:42:46.528Z,1.30
2023-01-17T04:45:14.676Z,1.20
2023-01-17T04:47:41.528Z,1.23
2023-01-17T04:50:10.479Z,0.85
2023-01-17T04:52:37.314Z,0.85
2023-01-17T04:55:05.110Z,0.63
2023-01-17T04:57:32.016Z,0.30
2023-01-17T04:59:59.018Z,0.90
2023-01-17T05:02:25.909Z,0.60
2023-01-17T05:04:52.832Z,0.60
2023-01-17T05:07:19.759Z,0.60
2023-01-17T05:09:47.611Z,0.60
2023-01-17T05:12:14.435Z,0.88
2023-01-17T05:14:41.257Z,0.65
2023-01-17T05:17:08.355Z,0.77
2023-01-17T05:19:35.198Z,0.85
2023-01-17T05:22:03.937Z,0.98
2023-01-17T05:24:32.140Z,1.10
2023-01-17T05:27:03.811Z,0.68
2023-01-17T05:29:30.818Z,1.13
2023-01-17T05:31:58.031Z,1.10
2023-01-17T05:34:25.332Z,1.90
2023-01-17T05:36:52.610Z,1.35
2023-01-17T05:39:19.507Z,1.50
2023-01-17T05:41:46.406Z,2.50
2023-01-17T05:44:15.088Z,1.20
2023-01-17T05:46:42.465Z,1.02
2023-01-17T05:49:09.476Z,0.70
2023-01-17T05:51:37.800Z,1.10
2023-01-17T05:54:05.755Z,0.75
2023-01-17T05:56:33.305Z,0.73
2023-01-17T05:59:00.345Z,0.75
2023-01-17T06:01:27.375Z,0.75
2023-01-17T06:03:54.141Z,0.68
2023-01-17T06:06:21.442Z,0.90
2023-01-17T06:08:48.308Z,0.98
2023-01-17T06:11:15.208Z,1.40
2023-01-17T06:13:42.029Z,1.30
2023-01-17T06:16:09.155Z,0.90
2023-01-17T06:18:36.023Z,0.98
2023-01-17T06:21:02.935Z,0.90
2023-01-17T06:23:29.829Z,1.00
2023-01-17T06:25:56.832Z,0.98
2023-01-17T06:28:24.057Z,1.13
2023-01-17T06:30:50.958Z,0.85
2023-01-17T06:33:17.965Z,1.02
2023-01-17T06:35:50.409Z,1.13
2023-01-17T06:38:17.457Z,1.50
2023-01-17T06:40:44.563Z,1.45
2023-01-17T06:43:11.396Z,2.10
2023-01-17T06:45:38.171Z,1.60
2023-01-17T06:48:05.780Z,1.60
2023-01-17T06:50:33.696Z,1.58
2023-01-17T06:53:06.219Z,1.70
2023-01-17T06:55:34.595Z,1.30
2023-01-17T06:58:05.151Z,1.23
2023-01-17T07:00:34.950Z,1.70
2023-01-17T07:03:02.140Z,1.55
2023-01-17T07:05:29.372Z,1.80
2023-01-17T07:07:57.490Z,1.63
2023-01-17T07:10:24.480Z,1.17
2023-01-17T07:12:51.520Z,1.40
2023-01-17T07:15:18.476Z,1.50
2023-01-17T07:17:45.692Z,1.40
2023-01-17T07:20:13.494Z,1.58
2023-01-17T07:22:44.700Z,1.55
2023-01-17T07:25:11.617Z,1.48
2023-01-17T07:27:38.540Z,1.75
2023-01-17T07:30:06.265Z,1.60
2023-01-17T07:32:33.176Z,1.58
2023-01-17T07:34:59.999Z,1.70
2023-01-17T07:37:26.876Z,1.33
2023-01-17T07:39:54.581Z,1.33
2023-01-17T07:42:23.939Z,1.50
2023-01-17T07:44:51.092Z,2.25
2023-01-17T07:47:17.930Z,1.80
2023-01-17T07:49:44.792Z,1.90
2023-01-17T07:52:11.947Z,1.98
2023-01-17T07:54:38.884Z,1.90
2023-01-17T07:57:06.049Z,1.90
2023-01-17T07:59:34.458Z,1.60
2023-01-17T08:02:01.596Z,1.60
2023-01-17T08:04:34.510Z,1.17
2023-01-17T08:07:02.254Z,1.42
2023-01-17T08:09:29.230Z,2.15
2023-01-17T08:11:56.037Z,1.98
2023-01-17T08:14:22.898Z,1.92
2023-01-17T08:16:49.695Z,1.30
2023-01-17T08:19:17.257Z,1.48
2023-01-17T08:21:44.073Z,1.80
2023-01-17T08:24:14.743Z,1.60
2023-01-17T08:26:41.671Z,1.23
2023-01-17T08:29:09.310Z,1.90
2023-01-17T08:31:36.664Z,2.00
2023-01-17T08:34:03.806Z,1.98
2023-01-17T08:36:31.202Z,1.95
2023-01-17T08:38:58.745Z,2.07
2023-01-17T08:41:29.066Z,2.60
2023-01-17T08:43:55.938Z,2.87
2023-01-17T08:46:22.978Z,2.17
2023-01-17T08:48:55.738Z,2.00
2023-01-17T08:51:26.298Z,1.80
2023-01-17T08:53:55.227Z,1.50
2023-01-17T08:56:26.889Z,1.83
2023-01-17T08:58:53.810Z,2.10
2023-01-17T09:01:20.820Z,1.90
2023-01-17T09:03:51.890Z,1.80
2023-01-17T09:06:18.841Z,1.70
2023-01-17T09:08:46.949Z,1.23
2023-01-17T09:11:16.994Z,1.40
2023-01-17T09:16:12.245Z,1.53
2023-01-17T09:18:39.165Z,1.27
2023-01-17T09:21:15.274Z,1.67
2023-01-17T09:23:42.950Z,2.07
2023-01-17T09:26:23.447Z,3.13
2023-01-17T09:28:51.105Z,4.00
2023-01-17T09:31:21.293Z,2.90
2023-01-17T09:33:50.020Z,2.63
2023-01-17T09:36:16.886Z,3.07
2023-01-17T09:38:43.840Z,3.00
2023-01-17T09:41:32.082Z,2.73
2023-01-17T09:44:01.659Z,1.63
2023-01-17T09:46:42.220Z,3.00
2023-01-17T09:49:35.601Z,4.07
2023-01-17T09:52:03.606Z,1.50
2023-01-17T09:54:41.445Z,1.27
2023-01-17T09:57:51.950Z,1.57
2023-01-17T10:00:30.417Z,1.47
2023-01-17T10:03:13.355Z,1.80
2023-01-17T10:06:33.357Z,1.30
2023-01-17T10:09:27.649Z,1.30
2023-01-17T10:12:06.546Z,1.50
2023-01-17T10:14:48.332Z,1.33
2023-01-17T10:18:16.566Z,0.93
2023-01-17T10:21:05.951Z,1.10
2023-01-17T10:23:59.063Z,1.17
2023-01-17T10:26:27.028Z,1.03
2023-01-17T10:29:00.527Z,1.20
2023-01-17T10:31:36.460Z,1.37
2023-01-17T10:34:17.701Z,1.13
2023-01-17T10:36:51.386Z,1.10
2023-01-17T10:39:28.078Z,1.17
2023-01-17T10:42:06.521Z,1.00
2023-01-17T10:44:57.499Z,0.90
2023-01-17T10:47:27.885Z,1.07
2023-01-17T10:50:01.764Z,1.30
2023-01-17T10:52:37.284Z,1.43
2023-01-17T10:55:37.613Z,1.07
2023-01-17T10:58:05.166Z,1.00
2023-01-17T11:00:43.855Z,0.90
2023-01-17T11:03:13.720Z,0.70
2023-01-17T11:05:42.700Z,0.73
2023-01-17T11:08:15.736Z,0.83
2023-01-17T11:10:57.096Z,0.73
2023-01-17T11:13:35.560Z,0.60
2023-01-17T11:16:09.945Z,0.77
2023-01-17T11:18:39.895Z,1.20
2023-01-17T11:21:24.509Z,1.07
2023-01-17T11:23:56.749Z,1.37
2023-01-17T11:26:32.878Z,1.87
2023-01-17T11:29:28.277Z,1.70
2023-01-17T11:31:58.609Z,1.87
2023-01-17T11:34:29.403Z,2.10
2023-01-17T11:37:18.544Z,2.27
2023-01-17T11:39:49.686Z,2.60
2023-01-17T11:42:38.485Z,1.63
2023-01-17T11:45:27.786Z,2.70
2023-01-17T11:48:12.360Z,2.47
2023-01-17T11:50:55.247Z,1.47
2023-01-17T11:53:27.933Z,1.23
2023-01-17T11:56:06.598Z,2.30
2023-01-17T11:58:38.676Z,4.43
2023-01-17T12:01:33.246Z,0.50
2023-01-17T12:04:24.029Z,1.80
2023-01-17T12:07:25.544Z,0.40
2023-01-17T12:10:43.544Z,0.90
2023-01-17T12:13:57.585Z,1.00
2023-01-17T12:16:33.131Z,0.50
2023-01-17T12:19:18.446Z,0.93
2023-01-17T12:21:53.093Z,0.50
2023-01-17T12:24:52.134Z,0.90
2023-01-17T12:27:55.719Z,0.40
2023-01-17T12:30:41.267Z,1.95
2023-01-17T12:33:29.398Z,1.35
2023-01-17T12:36:17.620Z,1.13
2023-01-17T12:38:48.086Z,1.90
2023-01-17T12:41:26.490Z,0.90
2023-01-17T12:44:00.388Z,1.60
2023-01-17T12:46:50.381Z,1.67
2023-01-17T12:50:07.179Z,1.63
2023-01-17T12:53:05.529Z,0.60
2023-01-17T12:55:54.750Z,1.40
2023-01-17T12:58:26.633Z,1.10
2023-01-17T13:01:04.581Z,0.87
2023-01-17T13:04:09.120Z,0.30
2023-01-17T13:07:00.321Z,0.57
2023-01-17T13:09:41.242Z,0.43
2023-01-17T13:12:16.890Z,0.63
2023-01-17T13:14:46.487Z,0.63
2023-01-17T13:17:35.595Z,0.93
2023-01-17T13:20:36.445Z,0.97
2023-01-17T13:23:46.864Z,0.85
2023-01-17T13:26:30.457Z,0.50
2023-01-17T13:29:08.294Z,1.03
2023-01-17T13:32:19.948Z,0.67
2023-01-17T13:35:18.212Z,0.40
2023-01-17T13:38:45.126Z,1.17
2023-01-17T13:41:36.884Z,1.00
2023-01-17T13:44:22.063Z,0.87
2023-01-17T13:47:04.163Z,1.20
2023-01-17T13:49:36.892Z,1.20
2023-01-17T13:52:18.992Z,0.90
2023-01-17T13:54:54.418Z,1.20
2023-01-17T13:57:29.357Z,1.25
2023-01-17T14:00:15.816Z,0.40
2023-01-17T14:02:43.694Z,0.30
2023-01-17T14:05:23.957Z,0.85
2023-01-17T14:08:04.538Z,1.33
2023-01-17T14:10:41.829Z,0.80
2023-01-17T14:13:35.850Z,1.00
2023-01-17T14:16:27.654Z,0.60
2023-01-17T14:18:55.515Z,0.70
2023-01-17T14:21:32.619Z,0.60
2023-01-17T14:24:15.377Z,1.03
2023-01-17T14:26:52.335Z,0.73
2023-01-17T14:30:00.444Z,1.07
2023-01-17T14:32:33.038Z,0.90
2023-01-17T14:34:59.951Z,1.10
2023-01-17T14:37:46.710Z,0.73
2023-01-17T14:40:18.910Z,0.80
2023-01-17T14:42:47.963Z,0.80
2023-01-17T14:45:25.850Z,0.60
2023-01-17T14:47:53.129Z,0.90
2023-01-17T14:50:29.351Z,0.75
2023-01-17T14:53:11.429Z,1.27
2023-01-17T14:55:49.013Z,0.90
2023-01-17T14:58:22.150Z,0.87
2023-01-17T15:00:53.057Z,0.43
2023-01-17T15:03:20.120Z,0.80
2023-01-17T15:05:50.210Z,0.90
2023-01-17T15:08:26.817Z,1.27
2023-01-17T15:10:57.067Z,1.30
2023-01-17T15:13:44.411Z,1.10
2023-01-17T15:16:27.215Z,0.90
2023-01-17T15:18:55.932Z,1.40
2023-01-17T15:21:36.865Z,1.17
2023-01-17T15:24:08.286Z,1.30
2023-01-17T15:26:45.256Z,1.10
2023-01-17T15:29:34.428Z,1.03
2023-01-17T15:32:05.143Z,1.10
2023-01-17T15:34:43.909Z,1.08
2023-01-17T15:37:36.469Z,0.77
2023-01-17T15:40:08.084Z,1.30
2023-01-17T15:42:38.721Z,1.00
2023-01-17T15:45:11.174Z,1.43
2023-01-17T15:47:39.225Z,0.90
2023-01-17T15:50:23.484Z,1.00
2023-01-17T15:52:52.539Z,1.10
2023-01-17T15:55:24.364Z,1.37
2023-01-17T15:57:51.227Z,0.80
2023-01-17T16:00:26.300Z,1.20
2023-01-17T16:02:58.826Z,1.17
2023-01-17T16:05:27.540Z,0.90
2023-01-17T16:08:25.765Z,1.57
2023-01-17T16:11:02.746Z,1.30
2023-01-17T16:13:42.302Z,1.13
2023-01-17T16:16:11.420Z,1.27
2023-01-17T16:18:38.524Z,0.95
2023-01-17T16:21:20.209Z,1.50
2023-01-17T16:23:47.631Z,0.90
2023-01-17T16:26:15.074Z,1.25
2023-01-17T16:28:41.928Z,1.33
2023-01-17T16:31:08.890Z,1.48
2023-01-17T16:33:35.841Z,1.00
2023-01-17T16:36:02.891Z,1.00
2023-01-17T16:38:30.373Z,1.35
2023-01-17T16:40:57.240Z,0.85
2023-01-17T16:43:24.038Z,1.40
2023-01-17T16:45:53.795Z,1.10
2023-01-17T16:48:21.072Z,1.25
2023-01-17T16:50:52.258Z,1.20
2023-01-17T16:53:25.667Z,1.05
2023-01-17T16:55:59.244Z,1.40
2023-01-17T16:58:26.042Z,1.23
2023-01-17T17:00:55.145Z,0.95
2023-01-17T17:03:22.401Z,1.20
2023-01-17T17:06:00.933Z,1.35
2023-01-17T17:08:29.333Z,1.75
2023-01-17T17:11:12.974Z,2.45
2023-01-17T17:13:41.962Z,2.30
2023-01-17T17:16:12.189Z,1.27
2023-01-17T17:18:39.080Z,1.95
2023-01-17T17:21:05.962Z,1.60
2023-01-17T17:23:32.856Z,1.80
2023-01-17T17:25:59.738Z,1.75
2023-01-17T17:28:26.590Z,1.40
2023-01-17T17:31:07.737Z,1.58
2023-01-17T17:33:35.422Z,1.52
2023-01-17T17:36:08.017Z,1.75
2023-01-17T17:38:35.054Z,2.35
2023-01-17T17:41:07.829Z,1.55
2023-01-17T17:43:41.227Z,0.80
2023-01-17T17:46:09.041Z,1.70
2023-01-17T17:48:36.751Z,1.48
2023-01-17T17:51:04.534Z,1.20
2023-01-17T17:53:31.977Z,1.77
2023-01-17T17:56:06.639Z,1.60
2023-01-17T17:58:35.462Z,1.98
2023-01-17T18:01:04.911Z,0.95
2023-01-17T18:03:32.737Z,1.30
2023-01-17T18:06:09.156Z,1.70
2023-01-17T18:08:38.051Z,1.70
2023-01-17T18:11:11.244Z,1.50
2023-01-17T18:13:38.905Z,1.42
2023-01-17T18:16:09.686Z,2.10
2023-01-17T18:18:39.167Z,1.67
2023-01-17T18:21:23.289Z,1.65
2023-01-17T18:23:54.674Z,2.17
2023-01-17T18:26:26.947Z,2.10
2023-01-17T18:28:55.409Z,1.00
2023-01-17T18:31:25.109Z,2.22
2023-01-17T18:33:54.117Z,2.10
2023-01-17T18:36:23.476Z,5.70
2023-01-17T18:38:51.407Z,4.90
2023-01-17T18:41:30.011Z,2.10
2023-01-17T18:43:57.825Z,3.50
2023-01-17T18:46:26.417Z,2.85
2023-01-17T18:48:57.126Z,2.55
2023-01-17T18:51:26.049Z,2.70
2023-01-17T18:53:55.611Z,2.17
2023-01-17T18:56:23.228Z,2.50
2023-01-17T18:58:50.894Z,1.85
2023-01-17T19:01:22.303Z,2.00
2023-01-17T19:03:51.816Z,1.90
2023-01-17T19:06:22.959Z,1.77
2023-01-17T19:08:51.800Z,1.88
2023-01-17T19:11:23.234Z,2.08
2023-01-17T19:13:52.324Z,2.15
2023-01-17T19:16:29.635Z,1.70
2023-01-17T19:19:01.839Z,2.35
2023-01-17T19:21:29.939Z,5.63
2023-01-17T19:23:58.172Z,4.60
2023-01-17T19:26:27.489Z,3.85
2023-01-17T19:28:56.538Z,2.25
2023-01-17T19:31:36.835Z,2.90
2023-01-17T19:34:03.693Z,2.25
2023-01-17T19:36:37.372Z,2.25
2023-01-17T19:39:09.234Z,1.88
2023-01-17T19:41:40.672Z,2.45
2023-01-17T19:44:10.481Z,2.50
2023-01-17T19:46:37.793Z,3.10
2023-01-17T19:49:07.217Z,2.47
2023-01-17T19:51:34.506Z,2.47
2023-01-17T19:54:02.724Z,2.15
2023-01-17T19:56:30.306Z,2.33
2023-01-17T19:59:01.196Z,2.55
2023-01-17T20:01:33.296Z,2.90
2023-01-17T20:04:02.457Z,2.40
2023-01-17T20:06:35.922Z,2.67
2023-01-17T20:09:05.338Z,2.53
2023-01-17T20:11:32.622Z,2.60
2023-01-17T20:14:00.282Z,3.10
2023-01-17T20:16:30.721Z,2.90
2023-01-17T20:19:02.486Z,3.10
2023-01-17T20:21:31.377Z,3.38
2023-01-17T20:24:00.181Z,2.70
2023-01-17T20:26:34.528Z,3.38
2023-01-17T20:29:10.279Z,3.30
2023-01-17T20:31:39.923Z,2.97
2023-01-17T20:34:10.556Z,3.05
2023-01-17T20:36:38.645Z,3.08
2023-01-17T20:39:07.252Z,3.10
2023-01-17T20:41:37.175Z,2.95
2023-01-17T20:44:07.142Z,3.15
2023-01-17T20:46:40.540Z,2.67
2023-01-17T20:49:15.446Z,2.60
2023-01-17T20:51:44.296Z,3.10
2023-01-17T20:54:14.437Z,3.30
2023-01-17T20:56:41.896Z,2.80
2023-01-17T20:59:16.607Z,2.63
2023-01-17T21:01:44.629Z,2.58
2023-01-17T21:04:12.952Z,2.80
2023-01-17T21:06:41.107Z,2.78
2023-01-17T21:09:11.774Z,2.80
2023-01-17T21:11:38.617Z,3.00
2023-01-17T21:14:06.450Z,3.30
2023-01-17T21:16:34.975Z,2.60
2023-01-17T21:19:02.455Z,3.30
2023-01-17T21:21:29.561Z,2.80
2023-01-17T21:23:59.149Z,3.10
2023-01-17T21:26:28.062Z,3.85
2023-01-17T21:28:55.779Z,3.50
2023-01-17T21:31:26.115Z,3.45
2023-01-17T21:34:00.897Z,3.17
2023-01-17T21:36:34.424Z,2.78
2023-01-17T21:39:05.367Z,2.80
2023-01-17T21:41:35.990Z,3.10
2023-01-17T21:44:07.920Z,3.70
2023-01-17T21:46:40.840Z,3.13
2023-01-17T21:49:12.675Z,3.60
2023-01-17T21:51:55.182Z,3.55
2023-01-17T21:54:46.012Z,3.90
2023-01-17T21:57:35.222Z,3.35
2023-01-17T22:00:06.443Z,3.72
2023-01-17T22:02:33.313Z,3.53
2023-01-17T22:05:00.288Z,3.50
2023-01-17T22:07:27.209Z,3.55
2023-01-17T22:09:54.528Z,3.85
2023-01-17T22:12:21.481Z,3.80
2023-01-17T22:14:48.306Z,4.00
2023-01-17T22:17:15.192Z,3.95
2023-01-17T22:19:42.003Z,3.60
2023-01-17T22:22:08.922Z,4.38
2023-01-17T22:24:35.752Z,3.28
2023-01-17T22:27:02.730Z,3.10
2023-01-17T22:29:29.638Z,3.97
2023-01-17T22:31:56.479Z,3.65
2023-01-17T22:34:23.408Z,3.70
2023-01-17T22:36:50.340Z,3.60
2023-01-17T22:39:17.187Z,4.20
2023-01-17T22:41:44.011Z,3.63
2023-01-17T22:44:11.177Z,3.80
2023-01-17T22:46:39.157Z,4.32
2023-01-17T22:49:08.185Z,3.75
2023-01-17T22:51:35.541Z,3.20
2023-01-17T22:54:02.517Z,3.42
2023-01-17T22:56:32.252Z,3.78
2023-01-17T22:59:00.729Z,2.80
2023-01-17T23:01:31.009Z,3.78
2023-01-17T23:04:01.251Z,3.53
2023-01-17T23:06:35.251Z,3.53
2023-01-17T23:09:11.902Z,3.17
2023-01-17T23:11:46.256Z,2.53
2023-01-17T23:14:30.505Z,3.65
2023-01-17T23:17:21.691Z,3.80
2023-01-17T23:19:54.514Z,3.20
2023-01-17T23:22:26.667Z,3.60
2023-01-17T23:24:57.985Z,3.90
2023-01-17T23:27:50.103Z,3.35
2023-01-17T23:30:28.629Z,2.20
2023-01-17T23:32:59.103Z,3.55
2023-01-17T23:35:41.242Z,2.63
2023-01-17T23:38:29.324Z,2.80
2023-01-17T23:41:27.264Z,3.00
2023-01-17T23:43:57.227Z,2.65
2023-01-17T23:46:25.675Z,3.25
2023-01-17T23:48:52.733Z,3.13
2023-01-17T23:51:19.605Z,3.88
2023-01-17T23:53:46.438Z,2.63
2023-01-17T23:56:20.112Z,2.08
2023-01-17T23:58:47.074Z,3.13
